sensor_id;sensor_type;location;lat;lon;timestamp;P1;durP1;ratioP1;P2;durP2;ratioP2
42668;SDS011;29384;42.028;21.388;2022-10-31T00:00:48;15.45;;;7.20;;
42668;SDS011;29384;42.028;21.388;2022-10-31T00:03:15;11.57;;;6.53;;
42668;SDS011;29384;42.028;21.388;2022-10-31T00:09:03;17.45;;;7.85;;
42668;SDS011;29384;42.028;21.388;2022-10-31T00:11:29;12.25;;;5.88;;
42668;SDS011;29384;42.028;21.388;2022-10-31T00:13:56;12.88;;;5.30;;
42668;SDS011;29384;42.028;21.388;2022-10-31T00:16:24;15.75;;;5.80;;
42668;SDS011;29384;42.028;21.388;2022-10-31T00:18:51;10.00;;;5.90;;
42668;SDS011;29384;42.028;21.388;2022-10-31T00:21:18;8.30;;;4.57;;
42668;SDS011;29384;42.028;21.388;2022-10-31T00:23:45;12.55;;;5.78;;
42668;SDS011;29384;42.028;21.388;2022-10-31T00:26:10;7.90;;;4.78;;
42668;SDS011;29384;42.028;21.388;2022-10-31T00:28:36;10.60;;;4.70;;
42668;SDS011;29384;42.028;21.388;2022-10-31T00:31:02;5.97;;;5.03;;
42668;SDS011;29384;42.028;21.388;2022-10-31T00:33:29;9.77;;;5.03;;
42668;SDS011;29384;42.028;21.388;2022-10-31T00:39:16;9.52;;;4.43;;
42668;SDS011;29384;42.028;21.388;2022-10-31T00:41:41;21.92;;;5.13;;
42668;SDS011;29384;42.028;21.388;2022-10-31T00:44:07;5.15;;;4.18;;
42668;SDS011;29384;42.028;21.388;2022-10-31T00:46:32;7.15;;;5.53;;
42668;SDS011;29384;42.028;21.388;2022-10-31T00:48:58;14.98;;;5.82;;
42668;SDS011;29384;42.028;21.388;2022-10-31T00:51:23;7.47;;;4.80;;
42668;SDS011;29384;42.028;21.388;2022-10-31T00:53:49;12.27;;;6.55;;
42668;SDS011;29384;42.028;21.388;2022-10-31T00:56:14;8.52;;;4.45;;
42668;SDS011;29384;42.028;21.388;2022-10-31T00:58:39;10.00;;;5.63;;
42668;SDS011;29384;42.028;21.388;2022-10-31T01:01:05;16.40;;;5.57;;
42668;SDS011;29384;42.028;21.388;2022-10-31T01:03:31;13.40;;;5.05;;
42668;SDS011;29384;42.028;21.388;2022-10-31T01:09:19;12.88;;;4.70;;
42668;SDS011;29384;42.028;21.388;2022-10-31T01:11:45;12.07;;;5.03;;
42668;SDS011;29384;42.028;21.388;2022-10-31T01:14:10;11.25;;;4.60;;
42668;SDS011;29384;42.028;21.388;2022-10-31T01:16:36;9.55;;;3.90;;
42668;SDS011;29384;42.028;21.388;2022-10-31T01:19:01;9.75;;;4.13;;
42668;SDS011;29384;42.028;21.388;2022-10-31T01:21:27;12.40;;;5.85;;
42668;SDS011;29384;42.028;21.388;2022-10-31T01:23:54;4.88;;;4.20;;
42668;SDS011;29384;42.028;21.388;2022-10-31T01:26:22;7.18;;;4.78;;
42668;SDS011;29384;42.028;21.388;2022-10-31T01:28:53;10.68;;;4.85;;
42668;SDS011;29384;42.028;21.388;2022-10-31T01:31:21;8.50;;;4.53;;
42668;SDS011;29384;42.028;21.388;2022-10-31T01:33:48;9.63;;;5.38;;
42668;SDS011;29384;42.028;21.388;2022-10-31T01:39:35;11.20;;;5.38;;
42668;SDS011;29384;42.028;21.388;2022-10-31T01:42:01;11.55;;;4.50;;
42668;SDS011;29384;42.028;21.388;2022-10-31T01:49:23;9.35;;;5.10;;
42668;SDS011;29384;42.028;21.388;2022-10-31T01:51:57;11.52;;;5.82;;
42668;SDS011;29384;42.028;21.388;2022-10-31T01:54:31;10.95;;;5.93;;
42668;SDS011;29384;42.028;21.388;2022-10-31T01:57:02;6.90;;;4.35;;
42668;SDS011;29384;42.028;21.388;2022-10-31T01:59:30;8.90;;;4.60;;
42668;SDS011;29384;42.028;21.388;2022-10-31T02:01:59;7.07;;;4.20;;
42668;SDS011;29384;42.028;21.388;2022-10-31T02:04:25;6.05;;;4.28;;
42668;SDS011;29384;42.028;21.388;2022-10-31T02:06:53;13.80;;;5.55;;
42668;SDS011;29384;42.028;21.388;2022-10-31T02:09:20;4.72;;;4.32;;
42668;SDS011;29384;42.028;21.388;2022-10-31T02:11:49;9.93;;;5.18;;
42668;SDS011;29384;42.028;21.388;2022-10-31T02:14:17;7.78;;;4.68;;
42668;SDS011;29384;42.028;21.388;2022-10-31T02:16:43;11.60;;;5.00;;
42668;SDS011;29384;42.028;21.388;2022-10-31T02:19:08;12.38;;;4.88;;
42668;SDS011;29384;42.028;21.388;2022-10-31T02:21:42;7.88;;;5.10;;
42668;SDS011;29384;42.028;21.388;2022-10-31T02:27:41;6.30;;;4.60;;
42668;SDS011;29384;42.028;21.388;2022-10-31T02:33:02;8.25;;;4.63;;
42668;SDS011;29384;42.028;21.388;2022-10-31T02:35:47;11.02;;;6.00;;
42668;SDS011;29384;42.028;21.388;2022-10-31T02:38:26;9.90;;;4.88;;
42668;SDS011;29384;42.028;21.388;2022-10-31T02:41:04;9.40;;;4.35;;
42668;SDS011;29384;42.028;21.388;2022-10-31T02:48:48;7.68;;;4.93;;
42668;SDS011;29384;42.028;21.388;2022-10-31T02:51:18;9.15;;;4.65;;
42668;SDS011;29384;42.028;21.388;2022-10-31T02:53:45;16.88;;;5.53;;
42668;SDS011;29384;42.028;21.388;2022-10-31T02:58:36;11.90;;;4.13;;
42668;SDS011;29384;42.028;21.388;2022-10-31T03:04:06;6.90;;;4.20;;
42668;SDS011;29384;42.028;21.388;2022-10-31T03:07:24;10.43;;;5.15;;
42668;SDS011;29384;42.028;21.388;2022-10-31T03:12:49;18.13;;;6.45;;
42668;SDS011;29384;42.028;21.388;2022-10-31T03:15:59;14.60;;;5.65;;
42668;SDS011;29384;42.028;21.388;2022-10-31T03:18:32;12.45;;;5.45;;
42668;SDS011;29384;42.028;21.388;2022-10-31T03:24:24;10.38;;;4.97;;
42668;SDS011;29384;42.028;21.388;2022-10-31T03:26:56;22.10;;;9.30;;
42668;SDS011;29384;42.028;21.388;2022-10-31T03:29:26;25.70;;;10.35;;
42668;SDS011;29384;42.028;21.388;2022-10-31T03:32:00;24.45;;;9.95;;
42668;SDS011;29384;42.028;21.388;2022-10-31T03:34:31;26.60;;;11.05;;
42668;SDS011;29384;42.028;21.388;2022-10-31T03:36:59;21.58;;;10.02;;
42668;SDS011;29384;42.028;21.388;2022-10-31T03:39:28;30.13;;;9.90;;
42668;SDS011;29384;42.028;21.388;2022-10-31T03:41:56;20.85;;;9.05;;
42668;SDS011;29384;42.028;21.388;2022-10-31T03:44:27;22.35;;;8.98;;
42668;SDS011;29384;42.028;21.388;2022-10-31T03:46:54;16.83;;;7.60;;
42668;SDS011;29384;42.028;21.388;2022-10-31T03:49:20;20.83;;;7.68;;
42668;SDS011;29384;42.028;21.388;2022-10-31T03:55:09;12.95;;;7.15;;
42668;SDS011;29384;42.028;21.388;2022-10-31T04:00:08;12.27;;;5.45;;
42668;SDS011;29384;42.028;21.388;2022-10-31T04:02:38;14.27;;;6.25;;
42668;SDS011;29384;42.028;21.388;2022-10-31T04:05:06;9.60;;;5.13;;
42668;SDS011;29384;42.028;21.388;2022-10-31T04:07:34;12.57;;;5.35;;
42668;SDS011;29384;42.028;21.388;2022-10-31T04:10:05;14.50;;;6.82;;
42668;SDS011;29384;42.028;21.388;2022-10-31T04:12:35;6.88;;;5.55;;
42668;SDS011;29384;42.028;21.388;2022-10-31T04:15:03;8.65;;;5.10;;
42668;SDS011;29384;42.028;21.388;2022-10-31T04:17:31;9.05;;;5.20;;
42668;SDS011;29384;42.028;21.388;2022-10-31T04:20:00;6.63;;;5.13;;
42668;SDS011;29384;42.028;21.388;2022-10-31T04:22:26;4.47;;;4.00;;
42668;SDS011;29384;42.028;21.388;2022-10-31T04:24:51;14.98;;;5.13;;
42668;SDS011;29384;42.028;21.388;2022-10-31T04:27:17;10.30;;;4.65;;
42668;SDS011;29384;42.028;21.388;2022-10-31T04:29:42;13.90;;;5.63;;
42668;SDS011;29384;42.028;21.388;2022-10-31T04:32:08;8.73;;;5.05;;
42668;SDS011;29384;42.028;21.388;2022-10-31T04:34:33;11.38;;;5.07;;
42668;SDS011;29384;42.028;21.388;2022-10-31T04:40:20;13.25;;;4.82;;
42668;SDS011;29384;42.028;21.388;2022-10-31T04:42:45;7.38;;;4.68;;
42668;SDS011;29384;42.028;21.388;2022-10-31T04:45:11;13.13;;;5.75;;
42668;SDS011;29384;42.028;21.388;2022-10-31T04:47:36;11.95;;;5.50;;
42668;SDS011;29384;42.028;21.388;2022-10-31T04:50:02;13.80;;;7.28;;
42668;SDS011;29384;42.028;21.388;2022-10-31T04:52:27;10.05;;;6.22;;
42668;SDS011;29384;42.028;21.388;2022-10-31T04:54:53;12.45;;;6.47;;
42668;SDS011;29384;42.028;21.388;2022-10-31T04:57:18;15.65;;;5.38;;
42668;SDS011;29384;42.028;21.388;2022-10-31T04:59:44;8.05;;;4.55;;
42668;SDS011;29384;42.028;21.388;2022-10-31T05:02:09;10.98;;;6.53;;
42668;SDS011;29384;42.028;21.388;2022-10-31T05:04:35;15.60;;;5.88;;
42668;SDS011;29384;42.028;21.388;2022-10-31T05:10:26;11.00;;;6.28;;
42668;SDS011;29384;42.028;21.388;2022-10-31T05:12:53;12.70;;;6.38;;
42668;SDS011;29384;42.028;21.388;2022-10-31T05:15:21;14.32;;;5.43;;
42668;SDS011;29384;42.028;21.388;2022-10-31T05:17:48;15.40;;;5.60;;
42668;SDS011;29384;42.028;21.388;2022-10-31T05:20:14;8.65;;;5.40;;
42668;SDS011;29384;42.028;21.388;2022-10-31T05:22:42;15.73;;;7.03;;
42668;SDS011;29384;42.028;21.388;2022-10-31T05:25:11;10.65;;;5.68;;
42668;SDS011;29384;42.028;21.388;2022-10-31T05:27:40;5.90;;;5.30;;
42668;SDS011;29384;42.028;21.388;2022-10-31T05:30:07;11.25;;;5.70;;
42668;SDS011;29384;42.028;21.388;2022-10-31T05:32:41;13.73;;;5.90;;
42668;SDS011;29384;42.028;21.388;2022-10-31T05:35:10;8.85;;;5.40;;
42668;SDS011;29384;42.028;21.388;2022-10-31T05:37:38;9.52;;;5.28;;
42668;SDS011;29384;42.028;21.388;2022-10-31T05:40:04;9.50;;;5.60;;
42668;SDS011;29384;42.028;21.388;2022-10-31T05:42:31;8.82;;;5.38;;
42668;SDS011;29384;42.028;21.388;2022-10-31T05:44:56;8.43;;;5.22;;
42668;SDS011;29384;42.028;21.388;2022-10-31T05:47:22;8.38;;;5.72;;
42668;SDS011;29384;42.028;21.388;2022-10-31T05:49:47;10.20;;;4.78;;
42668;SDS011;29384;42.028;21.388;2022-10-31T05:55:35;18.25;;;5.80;;
42668;SDS011;29384;42.028;21.388;2022-10-31T05:58:00;9.25;;;5.47;;
42668;SDS011;29384;42.028;21.388;2022-10-31T06:00:26;17.73;;;7.57;;
42668;SDS011;29384;42.028;21.388;2022-10-31T06:02:59;22.58;;;7.20;;
42668;SDS011;29384;42.028;21.388;2022-10-31T06:05:26;19.95;;;6.45;;
42668;SDS011;29384;42.028;21.388;2022-10-31T06:07:52;11.63;;;6.50;;
42668;SDS011;29384;42.028;21.388;2022-10-31T06:10:17;20.55;;;8.88;;
42668;SDS011;29384;42.028;21.388;2022-10-31T06:12:45;22.88;;;7.70;;
42668;SDS011;29384;42.028;21.388;2022-10-31T06:15:11;13.23;;;6.18;;
42668;SDS011;29384;42.028;21.388;2022-10-31T06:17:37;14.77;;;6.22;;
42668;SDS011;29384;42.028;21.388;2022-10-31T06:20:03;19.88;;;6.60;;
42668;SDS011;29384;42.028;21.388;2022-10-31T06:25:51;12.43;;;7.13;;
42668;SDS011;29384;42.028;21.388;2022-10-31T06:28:16;17.48;;;7.10;;
42668;SDS011;29384;42.028;21.388;2022-10-31T06:30:42;11.07;;;6.47;;
42668;SDS011;29384;42.028;21.388;2022-10-31T06:33:07;23.55;;;8.80;;
42668;SDS011;29384;42.028;21.388;2022-10-31T06:35:33;13.55;;;5.95;;
42668;SDS011;29384;42.028;21.388;2022-10-31T06:37:58;8.07;;;5.68;;
42668;SDS011;29384;42.028;21.388;2022-10-31T06:40:24;22.58;;;6.43;;
42668;SDS011;29384;42.028;21.388;2022-10-31T06:42:56;20.00;;;7.28;;
42668;SDS011;29384;42.028;21.388;2022-10-31T06:45:23;26.98;;;6.53;;
42668;SDS011;29384;42.028;21.388;2022-10-31T06:47:52;9.80;;;6.75;;
42668;SDS011;29384;42.028;21.388;2022-10-31T06:50:19;10.80;;;5.78;;
42668;SDS011;29384;42.028;21.388;2022-10-31T06:56:25;11.48;;;5.50;;
42668;SDS011;29384;42.028;21.388;2022-10-31T06:58:53;9.77;;;5.68;;
42668;SDS011;29384;42.028;21.388;2022-10-31T07:01:19;13.32;;;5.57;;
42668;SDS011;29384;42.028;21.388;2022-10-31T07:03:44;14.25;;;5.57;;
42668;SDS011;29384;42.028;21.388;2022-10-31T07:06:10;13.23;;;5.93;;
42668;SDS011;29384;42.028;21.388;2022-10-31T07:08:35;10.77;;;6.20;;
42668;SDS011;29384;42.028;21.388;2022-10-31T07:11:01;12.90;;;5.47;;
42668;SDS011;29384;42.028;21.388;2022-10-31T07:13:26;9.68;;;5.60;;
42668;SDS011;29384;42.028;21.388;2022-10-31T07:15:52;13.23;;;4.85;;
42668;SDS011;29384;42.028;21.388;2022-10-31T07:18:19;15.45;;;5.55;;
42668;SDS011;29384;42.028;21.388;2022-10-31T07:20:46;7.13;;;5.65;;
42668;SDS011;29384;42.028;21.388;2022-10-31T07:23:12;17.33;;;4.95;;
42668;SDS011;29384;42.028;21.388;2022-10-31T07:25:41;8.80;;;5.28;;
42668;SDS011;29384;42.028;21.388;2022-10-31T07:28:06;7.75;;;4.93;;
42668;SDS011;29384;42.028;21.388;2022-10-31T07:30:32;17.65;;;5.72;;
42668;SDS011;29384;42.028;21.388;2022-10-31T07:32:58;10.23;;;4.60;;
42668;SDS011;29384;42.028;21.388;2022-10-31T07:35:25;10.40;;;4.43;;
42668;SDS011;29384;42.028;21.388;2022-10-31T07:41:13;18.30;;;5.57;;
42668;SDS011;29384;42.028;21.388;2022-10-31T07:43:39;18.40;;;4.95;;
42668;SDS011;29384;42.028;21.388;2022-10-31T07:46:05;10.35;;;4.90;;
42668;SDS011;29384;42.028;21.388;2022-10-31T07:48:30;7.65;;;4.57;;
42668;SDS011;29384;42.028;21.388;2022-10-31T07:50:58;12.68;;;4.53;;
42668;SDS011;29384;42.028;21.388;2022-10-31T07:53:24;12.65;;;4.97;;
42668;SDS011;29384;42.028;21.388;2022-10-31T07:55:49;6.88;;;4.50;;
42668;SDS011;29384;42.028;21.388;2022-10-31T07:58:16;20.42;;;4.72;;
42668;SDS011;29384;42.028;21.388;2022-10-31T08:00:43;11.50;;;4.85;;
42668;SDS011;29384;42.028;21.388;2022-10-31T08:03:15;9.07;;;4.20;;
42668;SDS011;29384;42.028;21.388;2022-10-31T08:05:42;11.93;;;5.43;;
42668;SDS011;29384;42.028;21.388;2022-10-31T08:12:06;4.88;;;3.58;;
42668;SDS011;29384;42.028;21.388;2022-10-31T08:14:32;12.45;;;4.15;;
42668;SDS011;29384;42.028;21.388;2022-10-31T08:16:57;12.38;;;4.95;;
42668;SDS011;29384;42.028;21.388;2022-10-31T08:19:23;5.88;;;4.70;;
42668;SDS011;29384;42.028;21.388;2022-10-31T08:21:51;9.50;;;4.57;;
42668;SDS011;29384;42.028;21.388;2022-10-31T08:24:20;6.82;;;3.78;;
42668;SDS011;29384;42.028;21.388;2022-10-31T08:26:48;19.45;;;5.32;;
42668;SDS011;29384;42.028;21.388;2022-10-31T08:29:13;7.57;;;4.20;;
42668;SDS011;29384;42.028;21.388;2022-10-31T08:31:39;6.38;;;4.10;;
42668;SDS011;29384;42.028;21.388;2022-10-31T08:34:06;12.38;;;4.63;;
42668;SDS011;29384;42.028;21.388;2022-10-31T08:36:31;7.45;;;3.33;;
42668;SDS011;29384;42.028;21.388;2022-10-31T08:38:57;11.55;;;4.30;;
42668;SDS011;29384;42.028;21.388;2022-10-31T08:41:23;10.35;;;4.47;;
42668;SDS011;29384;42.028;21.388;2022-10-31T08:43:48;6.70;;;4.45;;
42668;SDS011;29384;42.028;21.388;2022-10-31T08:46:14;8.48;;;3.75;;
42668;SDS011;29384;42.028;21.388;2022-10-31T08:48:39;11.65;;;4.80;;
42668;SDS011;29384;42.028;21.388;2022-10-31T08:51:05;11.20;;;4.47;;
42668;SDS011;29384;42.028;21.388;2022-10-31T08:53:31;28.15;;;4.32;;
42668;SDS011;29384;42.028;21.388;2022-10-31T08:55:56;12.20;;;4.25;;
42668;SDS011;29384;42.028;21.388;2022-10-31T08:58:22;8.50;;;3.95;;
42668;SDS011;29384;42.028;21.388;2022-10-31T09:00:49;5.60;;;4.13;;
42668;SDS011;29384;42.028;21.388;2022-10-31T09:03:26;9.80;;;3.15;;
42668;SDS011;29384;42.028;21.388;2022-10-31T09:05:57;30.90;;;4.07;;
42668;SDS011;29384;42.028;21.388;2022-10-31T09:11:47;9.90;;;4.47;;
42668;SDS011;29384;42.028;21.388;2022-10-31T09:14:12;4.55;;;3.25;;
42668;SDS011;29384;42.028;21.388;2022-10-31T09:16:38;15.30;;;5.65;;
42668;SDS011;29384;42.028;21.388;2022-10-31T09:19:03;7.82;;;2.85;;
42668;SDS011;29384;42.028;21.388;2022-10-31T09:21:29;12.25;;;4.30;;
42668;SDS011;29384;42.028;21.388;2022-10-31T09:23:54;4.97;;;2.78;;
42668;SDS011;29384;42.028;21.388;2022-10-31T09:26:20;12.50;;;4.20;;
42668;SDS011;29384;42.028;21.388;2022-10-31T09:28:46;11.85;;;3.25;;
42668;SDS011;29384;42.028;21.388;2022-10-31T09:31:11;6.07;;;3.53;;
42668;SDS011;29384;42.028;21.388;2022-10-31T09:33:37;14.85;;;4.78;;
42668;SDS011;29384;42.028;21.388;2022-10-31T09:36:03;17.55;;;4.38;;
42668;SDS011;29384;42.028;21.388;2022-10-31T09:47:24;16.75;;;4.55;;
42668;SDS011;29384;42.028;21.388;2022-10-31T09:50:14;12.88;;;4.28;;
42668;SDS011;29384;42.028;21.388;2022-10-31T09:52:51;16.13;;;3.92;;
42668;SDS011;29384;42.028;21.388;2022-10-31T09:55:45;10.75;;;4.30;;
42668;SDS011;29384;42.028;21.388;2022-10-31T09:58:46;10.75;;;4.50;;
42668;SDS011;29384;42.028;21.388;2022-10-31T10:01:09;10.65;;;3.92;;
42668;SDS011;29384;42.028;21.388;2022-10-31T10:03:46;6.60;;;3.85;;
42668;SDS011;29384;42.028;21.388;2022-10-31T10:06:25;9.32;;;3.40;;
42668;SDS011;29384;42.028;21.388;2022-10-31T10:09:47;8.88;;;3.65;;
42668;SDS011;29384;42.028;21.388;2022-10-31T10:14:47;10.20;;;4.22;;
42668;SDS011;29384;42.028;21.388;2022-10-31T10:27:09;4.95;;;3.33;;
42668;SDS011;29384;42.028;21.388;2022-10-31T10:32:45;9.55;;;2.78;;
42668;SDS011;29384;42.028;21.388;2022-10-31T10:35:19;3.20;;;2.67;;
42668;SDS011;29384;42.028;21.388;2022-10-31T10:37:52;11.80;;;2.90;;
42668;SDS011;29384;42.028;21.388;2022-10-31T10:40:25;15.30;;;2.85;;
42668;SDS011;29384;42.028;21.388;2022-10-31T10:45:57;10.55;;;3.53;;
42668;SDS011;29384;42.028;21.388;2022-10-31T10:51:35;13.05;;;3.97;;
42668;SDS011;29384;42.028;21.388;2022-10-31T11:00:17;8.02;;;3.08;;
42668;SDS011;29384;42.028;21.388;2022-10-31T11:02:46;11.98;;;3.67;;
42668;SDS011;29384;42.028;21.388;2022-10-31T11:05:21;12.02;;;3.20;;
42668;SDS011;29384;42.028;21.388;2022-10-31T11:13:43;9.18;;;3.58;;
42668;SDS011;29384;42.028;21.388;2022-10-31T11:16:14;6.10;;;2.25;;
42668;SDS011;29384;42.028;21.388;2022-10-31T11:18:52;7.13;;;2.35;;
42668;SDS011;29384;42.028;21.388;2022-10-31T11:21:23;3.58;;;2.33;;
42668;SDS011;29384;42.028;21.388;2022-10-31T11:27:20;3.25;;;2.35;;
42668;SDS011;29384;42.028;21.388;2022-10-31T11:29:48;3.65;;;2.15;;
42668;SDS011;29384;42.028;21.388;2022-10-31T11:32:16;4.45;;;2.30;;
42668;SDS011;29384;42.028;21.388;2022-10-31T11:34:46;8.65;;;3.17;;
42668;SDS011;29384;42.028;21.388;2022-10-31T11:37:21;7.65;;;2.63;;
42668;SDS011;29384;42.028;21.388;2022-10-31T11:39:52;4.95;;;2.42;;
42668;SDS011;29384;42.028;21.388;2022-10-31T11:42:22;7.40;;;2.28;;
42668;SDS011;29384;42.028;21.388;2022-10-31T11:44:52;10.32;;;2.35;;
42668;SDS011;29384;42.028;21.388;2022-10-31T11:47:26;7.15;;;2.40;;
42668;SDS011;29384;42.028;21.388;2022-10-31T11:49:54;4.35;;;2.78;;
42668;SDS011;29384;42.028;21.388;2022-10-31T11:52:24;7.47;;;2.72;;
42668;SDS011;29384;42.028;21.388;2022-10-31T11:54:53;7.97;;;2.55;;
42668;SDS011;29384;42.028;21.388;2022-10-31T11:57:42;3.33;;;2.28;;
42668;SDS011;29384;42.028;21.388;2022-10-31T12:02:50;1.23;;;1.20;;
42668;SDS011;29384;42.028;21.388;2022-10-31T12:05:33;8.60;;;2.15;;
42668;SDS011;29384;42.028;21.388;2022-10-31T12:07:59;8.27;;;2.30;;
42668;SDS011;29384;42.028;21.388;2022-10-31T12:10:27;9.50;;;2.53;;
42668;SDS011;29384;42.028;21.388;2022-10-31T12:13:08;4.90;;;1.65;;
42668;SDS011;29384;42.028;21.388;2022-10-31T12:15:58;7.55;;;2.97;;
42668;SDS011;29384;42.028;21.388;2022-10-31T12:30:36;5.65;;;2.38;;
42668;SDS011;29384;42.028;21.388;2022-10-31T12:34:09;14.48;;;1.95;;
42668;SDS011;29384;42.028;21.388;2022-10-31T12:36:20;2.22;;;2.08;;
42668;SDS011;29384;42.028;21.388;2022-10-31T12:47:44;2.50;;;1.40;;
42668;SDS011;29384;42.028;21.388;2022-10-31T12:50:27;10.05;;;2.50;;
42668;SDS011;29384;42.028;21.388;2022-10-31T12:56:34;3.53;;;1.55;;
42668;SDS011;29384;42.028;21.388;2022-10-31T12:59:16;18.23;;;3.38;;
42668;SDS011;29384;42.028;21.388;2022-10-31T13:02:09;4.57;;;2.13;;
42668;SDS011;29384;42.028;21.388;2022-10-31T13:16:42;5.07;;;1.75;;
42668;SDS011;29384;42.028;21.388;2022-10-31T13:19:25;2.60;;;1.52;;
42668;SDS011;29384;42.028;21.388;2022-10-31T13:22:09;6.85;;;2.25;;
42668;SDS011;29384;42.028;21.388;2022-10-31T13:27:18;9.93;;;2.13;;
42668;SDS011;29384;42.028;21.388;2022-10-31T13:30:01;4.65;;;1.90;;
42668;SDS011;29384;42.028;21.388;2022-10-31T13:32:48;3.67;;;1.50;;
42668;SDS011;29384;42.028;21.388;2022-10-31T13:44:17;9.63;;;2.50;;
42668;SDS011;29384;42.028;21.388;2022-10-31T13:46:47;9.93;;;1.75;;
42668;SDS011;29384;42.028;21.388;2022-10-31T13:49:26;3.05;;;1.35;;
42668;SDS011;29384;42.028;21.388;2022-10-31T13:57:57;6.93;;;1.38;;
42668;SDS011;29384;42.028;21.388;2022-10-31T14:00:24;5.75;;;2.58;;
42668;SDS011;29384;42.028;21.388;2022-10-31T14:02:52;7.70;;;1.40;;
42668;SDS011;29384;42.028;21.388;2022-10-31T14:05:33;7.65;;;1.05;;
42668;SDS011;29384;42.028;21.388;2022-10-31T14:08:03;10.40;;;2.17;;
42668;SDS011;29384;42.028;21.388;2022-10-31T14:10:38;3.92;;;1.88;;
42668;SDS011;29384;42.028;21.388;2022-10-31T14:16:22;7.80;;;1.83;;
42668;SDS011;29384;42.028;21.388;2022-10-31T14:19:00;4.50;;;1.83;;
42668;SDS011;29384;42.028;21.388;2022-10-31T14:21:37;4.82;;;1.40;;
42668;SDS011;29384;42.028;21.388;2022-10-31T14:26:54;12.35;;;3.08;;
42668;SDS011;29384;42.028;21.388;2022-10-31T14:32:03;2.08;;;1.80;;
42668;SDS011;29384;42.028;21.388;2022-10-31T14:34:38;5.05;;;1.48;;
42668;SDS011;29384;42.028;21.388;2022-10-31T14:48:33;27.70;;;2.47;;
42668;SDS011;29384;42.028;21.388;2022-10-31T14:51:15;8.45;;;2.97;;
42668;SDS011;29384;42.028;21.388;2022-10-31T14:57:06;3.00;;;2.10;;
42668;SDS011;29384;42.028;21.388;2022-10-31T15:02:09;4.82;;;2.22;;
42668;SDS011;29384;42.028;21.388;2022-10-31T15:04:44;16.17;;;1.90;;
42668;SDS011;29384;42.028;21.388;2022-10-31T15:13:10;8.45;;;1.80;;
42668;SDS011;29384;42.028;21.388;2022-10-31T15:15:46;5.82;;;2.00;;
42668;SDS011;29384;42.028;21.388;2022-10-31T15:18:16;8.35;;;1.40;;
42668;SDS011;29384;42.028;21.388;2022-10-31T15:20:43;8.25;;;3.08;;
42668;SDS011;29384;42.028;21.388;2022-10-31T15:23:24;3.53;;;1.52;;
42668;SDS011;29384;42.028;21.388;2022-10-31T15:26:00;4.53;;;1.30;;
42668;SDS011;29384;42.028;21.388;2022-10-31T15:28:28;5.38;;;2.92;;
42668;SDS011;29384;42.028;21.388;2022-10-31T15:30:55;5.68;;;2.25;;
42668;SDS011;29384;42.028;21.388;2022-10-31T15:33:26;5.13;;;2.42;;
42668;SDS011;29384;42.028;21.388;2022-10-31T15:36:00;17.45;;;1.77;;
42668;SDS011;29384;42.028;21.388;2022-10-31T15:38:27;6.03;;;2.33;;
42668;SDS011;29384;42.028;21.388;2022-10-31T15:41:04;4.28;;;2.08;;
42668;SDS011;29384;42.028;21.388;2022-10-31T15:43:44;7.88;;;2.88;;
42668;SDS011;29384;42.028;21.388;2022-10-31T15:46:09;7.03;;;2.78;;
42668;SDS011;29384;42.028;21.388;2022-10-31T15:48:35;9.25;;;2.85;;
42668;SDS011;29384;42.028;21.388;2022-10-31T15:54:04;10.95;;;2.30;;
42668;SDS011;29384;42.028;21.388;2022-10-31T15:56:30;12.20;;;1.75;;
42668;SDS011;29384;42.028;21.388;2022-10-31T15:58:57;9.25;;;1.67;;
42668;SDS011;29384;42.028;21.388;2022-10-31T16:01:31;15.18;;;2.45;;
42668;SDS011;29384;42.028;21.388;2022-10-31T16:04:02;32.80;;;2.97;;
42668;SDS011;29384;42.028;21.388;2022-10-31T16:06:37;4.70;;;1.90;;
42668;SDS011;29384;42.028;21.388;2022-10-31T16:09:03;3.85;;;1.33;;
42668;SDS011;29384;42.028;21.388;2022-10-31T16:11:45;6.32;;;2.00;;
42668;SDS011;29384;42.028;21.388;2022-10-31T16:16:44;4.18;;;2.72;;
42668;SDS011;29384;42.028;21.388;2022-10-31T16:21:54;5.05;;;1.75;;
42668;SDS011;29384;42.028;21.388;2022-10-31T16:24:29;11.65;;;3.28;;
42668;SDS011;29384;42.028;21.388;2022-10-31T16:27:00;23.98;;;3.28;;
42668;SDS011;29384;42.028;21.388;2022-10-31T16:32:36;7.32;;;5.32;;
42668;SDS011;29384;42.028;21.388;2022-10-31T16:35:18;10.18;;;3.22;;
42668;SDS011;29384;42.028;21.388;2022-10-31T16:37:50;38.00;;;8.38;;
42668;SDS011;29384;42.028;21.388;2022-10-31T16:40:16;12.63;;;6.82;;
42668;SDS011;29384;42.028;21.388;2022-10-31T16:42:43;14.93;;;4.78;;
42668;SDS011;29384;42.028;21.388;2022-10-31T16:45:22;27.88;;;5.75;;
42668;SDS011;29384;42.028;21.388;2022-10-31T16:47:49;20.85;;;6.30;;
42668;SDS011;29384;42.028;21.388;2022-10-31T16:52:48;14.60;;;4.40;;
42668;SDS011;29384;42.028;21.388;2022-10-31T16:55:14;23.65;;;5.35;;
42668;SDS011;29384;42.028;21.388;2022-10-31T16:57:45;13.40;;;4.80;;
42668;SDS011;29384;42.028;21.388;2022-10-31T17:00:15;10.90;;;5.00;;
42668;SDS011;29384;42.028;21.388;2022-10-31T17:02:44;22.77;;;6.07;;
42668;SDS011;29384;42.028;21.388;2022-10-31T17:05:14;12.13;;;6.38;;
42668;SDS011;29384;42.028;21.388;2022-10-31T17:07:41;16.98;;;5.93;;
42668;SDS011;29384;42.028;21.388;2022-10-31T17:10:07;28.52;;;8.02;;
42668;SDS011;29384;42.028;21.388;2022-10-31T17:12:34;18.92;;;7.57;;
42668;SDS011;29384;42.028;21.388;2022-10-31T17:15:00;17.50;;;6.70;;
42668;SDS011;29384;42.028;21.388;2022-10-31T17:17:26;15.68;;;7.55;;
42668;SDS011;29384;42.028;21.388;2022-10-31T17:19:51;18.85;;;6.07;;
42668;SDS011;29384;42.028;21.388;2022-10-31T17:22:17;20.98;;;6.72;;
42668;SDS011;29384;42.028;21.388;2022-10-31T17:24:42;11.85;;;6.60;;
42668;SDS011;29384;42.028;21.388;2022-10-31T17:27:08;15.48;;;5.22;;
42668;SDS011;29384;42.028;21.388;2022-10-31T17:29:33;12.27;;;6.03;;
42668;SDS011;29384;42.028;21.388;2022-10-31T17:31:59;20.58;;;7.20;;
42668;SDS011;29384;42.028;21.388;2022-10-31T17:34:27;23.02;;;6.97;;
42668;SDS011;29384;42.028;21.388;2022-10-31T17:36:52;26.00;;;9.95;;
42668;SDS011;29384;42.028;21.388;2022-10-31T17:39:18;20.27;;;7.57;;
42668;SDS011;29384;42.028;21.388;2022-10-31T17:41:44;26.38;;;8.73;;
42668;SDS011;29384;42.028;21.388;2022-10-31T17:44:10;22.90;;;9.43;;
42668;SDS011;29384;42.028;21.388;2022-10-31T17:46:36;29.52;;;7.60;;
42668;SDS011;29384;42.028;21.388;2022-10-31T17:49:02;32.42;;;7.45;;
42668;SDS011;29384;42.028;21.388;2022-10-31T17:51:31;9.55;;;3.88;;
42668;SDS011;29384;42.028;21.388;2022-10-31T17:53:56;7.95;;;4.50;;
42668;SDS011;29384;42.028;21.388;2022-10-31T17:56:22;8.73;;;5.00;;
42668;SDS011;29384;42.028;21.388;2022-10-31T17:58:48;12.65;;;3.97;;
42668;SDS011;29384;42.028;21.388;2022-10-31T18:01:14;11.38;;;5.28;;
42668;SDS011;29384;42.028;21.388;2022-10-31T18:03:42;22.02;;;5.60;;
42668;SDS011;29384;42.028;21.388;2022-10-31T18:06:08;19.70;;;5.35;;
42668;SDS011;29384;42.028;21.388;2022-10-31T18:08:35;15.57;;;4.55;;
42668;SDS011;29384;42.028;21.388;2022-10-31T18:14:25;25.48;;;11.23;;
42668;SDS011;29384;42.028;21.388;2022-10-31T18:16:52;33.85;;;11.23;;
42668;SDS011;29384;42.028;21.388;2022-10-31T18:19:18;21.30;;;8.93;;
42668;SDS011;29384;42.028;21.388;2022-10-31T18:21:43;25.02;;;7.60;;
42668;SDS011;29384;42.028;21.388;2022-10-31T18:24:10;27.27;;;10.40;;
42668;SDS011;29384;42.028;21.388;2022-10-31T18:26:35;22.95;;;8.45;;